Flight Track Log - Related Links

Times and Time Zones

All times are in EDT time to prevent confusion due to time zone crossing. See the N572EC flight status page for this flight to view local times or setup timezone preferences in your user account.

Time Position Orientation Groundspeed Altitude Reporting Facility
EDT Latitude Longitude Course Direction KTS MPH feet Rate Location/Type
Sun 11:42:54 AM 27.4000 -82.5667 270° West 197 227 800  Level Tampa TRACON
Sun 11:43:54 AM 27.4000 -82.6167 270° West 201 231 2,700 2,000 Climbing Tampa TRACON
Sun 11:45:00 AM 27.4000 -82.7000 270° West 246 283 5,000 1,526 Climbing Tampa TRACON
Sun 11:45:48 AM 27.4500 -82.7167 344° North 282 325 5,600 2,556 Climbing Tampa TRACON
Sun 11:46:48 AM 27.5167 -82.6667 34° Northeast 267 307 9,600 2,250 Climbing Tampa TRACON
Sun 11:47:48 AM 27.5667 -82.6000 50° Northeast 304 350 10,100 200 Climbing Tampa TRACON
Sun 11:48:48 AM 27.6333 -82.5167 48° Northeast 345 397 10,000 -50 Descending Tampa TRACON
Sun 11:49:48 AM 27.7000 -82.4500 42° Northeast 345 397 10,000  Level Tampa TRACON
Sun 11:50:48 AM 27.7500 -82.3667 56° Northeast 333 383 10,000  Level Tampa TRACON
Sun 11:51:49 AM 27.8167 -82.3000 41° Northeast 337 388 10,000  Level Tampa TRACON
Sun 11:52:54 AM 27.9167 -82.2667 16° North 333 383 10,000  Level Tampa TRACON
Sun 11:53:49 AM 28.0000 -82.2667 360° North 334 384 10,000  Level Tampa TRACON
Sun 11:54:49 AM 28.1000 -82.2667 360° North 334 384 10,000  Level Tampa TRACON
Sun 11:55:55 AM 28.2000 -82.2667 360° North 334 384 10,000  Level Tampa TRACON
Sun 11:56:54 AM 28.2833 -82.2667 360° North 334 384 10,000  Level Tampa TRACON
Sun 11:57:55 AM 28.3667 -82.2500 10° North 333 383 10,000  Level Tampa TRACON
Sun 11:58:49 AM 28.4667 -82.2500 360° North 333 383 10,000  Level Tampa TRACON
Sun 12:01:03 PM 28.6575 -82.2750 353° North 288 331 10,000  Level Jacksonville Center
Sun 12:02:04 PM 28.7267 -82.2958 345° North 243 280 10,000 -310 Level Jacksonville Center
Sun 12:02:59 PM 28.7872 -82.2981 358° North 225 259 9,400 -1,190 Descending Jacksonville Center
Sun 12:04:00 PM 28.8539 -82.3000 359° North 235 270 7,700 -1,869 Descending Jacksonville Center
Sun 12:05:01 PM 28.9269 -82.3042 357° North 244 281 5,600 -1,967 Descending Jacksonville Center
Sun 12:06:02 PM 28.9981 -82.3061 359° North 253 291 3,700 -1,230 Descending Jacksonville Center
Sun 12:07:03 PM 29.0606 -82.3083 358° North 230 265 3,100 -541 Descending Jacksonville Center
Sun 12:08:04 PM 29.1150 -82.3125 356° North 187 215 2,600 -689 Descending Jacksonville Center
Sun 12:09:05 PM 29.1692 -82.3147 358° North 191 220 1,700 -590 Descending Jacksonville Center
Sun 12:10:06 PM 29.2192 -82.3050 10° North 171 197 1,400 -234 Descending Jacksonville Center
Sun 12:11:13 PM 29.2272 -82.2500 80° East 164 189 1,200 -375 Descending Jacksonville Center
Sun 12:12:14 PM 29.2000 -82.2242 140° Southeast 145 167 600 -590 Descending Jacksonville Center

Login

Don't have an account? Register now (free) for customized features, flight alerts, and more!